sensor_id;sensor_type;location;lat;lon;timestamp;P1;durP1;ratioP1;P2;durP2;ratioP2
7199;SDS011;3641;49.082;8.200;2022-09-03T00:00:51;3.72;;;2.25;;
7199;SDS011;3641;49.082;8.200;2022-09-03T00:03:22;4.63;;;2.05;;
7199;SDS011;3641;49.082;8.200;2022-09-03T00:06:00;4.32;;;2.25;;
7199;SDS011;3641;49.082;8.200;2022-09-03T00:08:37;4.38;;;2.13;;
7199;SDS011;3641;49.082;8.200;2022-09-03T00:11:10;3.55;;;2.20;;
7199;SDS011;3641;49.082;8.200;2022-09-03T00:13:42;7.40;;;1.95;;
7199;SDS011;3641;49.082;8.200;2022-09-03T00:16:11;5.82;;;2.10;;
7199;SDS011;3641;49.082;8.200;2022-09-03T00:18:43;5.22;;;2.10;;
7199;SDS011;3641;49.082;8.200;2022-09-03T00:21:14;2.75;;;1.92;;
7199;SDS011;3641;49.082;8.200;2022-09-03T00:23:46;3.83;;;1.80;;
7199;SDS011;3641;49.082;8.200;2022-09-03T00:26:16;4.45;;;2.15;;
7199;SDS011;3641;49.082;8.200;2022-09-03T00:28:50;3.42;;;2.15;;
7199;SDS011;3641;49.082;8.200;2022-09-03T00:31:24;5.28;;;1.77;;
7199;SDS011;3641;49.082;8.200;2022-09-03T00:33:55;5.30;;;2.38;;
7199;SDS011;3641;49.082;8.200;2022-09-03T00:36:30;2.75;;;1.90;;
7199;SDS011;3641;49.082;8.200;2022-09-03T00:39:01;2.63;;;1.85;;
7199;SDS011;3641;49.082;8.200;2022-09-03T00:41:29;5.55;;;1.85;;
7199;SDS011;3641;49.082;8.200;2022-09-03T00:44:12;3.13;;;1.83;;
7199;SDS011;3641;49.082;8.200;2022-09-03T00:46:52;5.57;;;2.50;;
7199;SDS011;3641;49.082;8.200;2022-09-03T00:49:27;3.70;;;1.80;;
7199;SDS011;3641;49.082;8.200;2022-09-03T00:52:07;6.53;;;2.33;;
7199;SDS011;3641;49.082;8.200;2022-09-03T00:54:45;3.00;;;2.08;;
7199;SDS011;3641;49.082;8.200;2022-09-03T00:57:22;7.28;;;2.45;;
7199;SDS011;3641;49.082;8.200;2022-09-03T01:00:00;4.43;;;1.98;;
7199;SDS011;3641;49.082;8.200;2022-09-03T01:02:34;3.85;;;2.00;;
7199;SDS011;3641;49.082;8.200;2022-09-03T01:05:17;5.15;;;2.13;;
7199;SDS011;3641;49.082;8.200;2022-09-03T01:07:57;3.08;;;1.98;;
7199;SDS011;3641;49.082;8.200;2022-09-03T01:10:34;4.63;;;2.20;;
7199;SDS011;3641;49.082;8.200;2022-09-03T01:13:11;4.60;;;2.35;;
7199;SDS011;3641;49.082;8.200;2022-09-03T01:15:43;3.42;;;1.88;;
7199;SDS011;3641;49.082;8.200;2022-09-03T01:18:19;4.40;;;2.30;;
7199;SDS011;3641;49.082;8.200;2022-09-03T01:20:54;2.47;;;1.70;;
7199;SDS011;3641;49.082;8.200;2022-09-03T01:26:35;3.40;;;2.13;;
7199;SDS011;3641;49.082;8.200;2022-09-03T01:29:14;4.88;;;2.00;;
7199;SDS011;3641;49.082;8.200;2022-09-03T01:31:52;5.10;;;1.92;;
7199;SDS011;3641;49.082;8.200;2022-09-03T01:34:28;3.55;;;2.15;;
7199;SDS011;3641;49.082;8.200;2022-09-03T01:37:06;5.63;;;2.35;;
7199;SDS011;3641;49.082;8.200;2022-09-03T01:39:42;3.70;;;2.20;;
7199;SDS011;3641;49.082;8.200;2022-09-03T01:42:22;6.47;;;2.22;;
7199;SDS011;3641;49.082;8.200;2022-09-03T01:45:14;4.07;;;2.45;;
7199;SDS011;3641;49.082;8.200;2022-09-03T01:47:55;4.75;;;2.83;;
7199;SDS011;3641;49.082;8.200;2022-09-03T01:50:36;4.20;;;2.70;;
7199;SDS011;3641;49.082;8.200;2022-09-03T01:53:09;4.95;;;2.40;;
7199;SDS011;3641;49.082;8.200;2022-09-03T01:55:50;3.63;;;2.70;;
7199;SDS011;3641;49.082;8.200;2022-09-03T01:58:34;4.88;;;2.63;;
7199;SDS011;3641;49.082;8.200;2022-09-03T02:01:09;5.88;;;2.70;;
7199;SDS011;3641;49.082;8.200;2022-09-03T02:03:41;5.50;;;2.80;;
7199;SDS011;3641;49.082;8.200;2022-09-03T02:06:10;4.60;;;2.70;;
7199;SDS011;3641;49.082;8.200;2022-09-03T02:08:37;7.63;;;2.83;;
7199;SDS011;3641;49.082;8.200;2022-09-03T02:11:06;5.13;;;2.40;;
7199;SDS011;3641;49.082;8.200;2022-09-03T02:13:35;5.07;;;2.60;;
7199;SDS011;3641;49.082;8.200;2022-09-03T02:16:06;5.35;;;2.58;;
7199;SDS011;3641;49.082;8.200;2022-09-03T02:18:40;4.40;;;2.53;;
7199;SDS011;3641;49.082;8.200;2022-09-03T02:21:10;5.05;;;2.75;;
7199;SDS011;3641;49.082;8.200;2022-09-03T02:23:38;6.47;;;3.42;;
7199;SDS011;3641;49.082;8.200;2022-09-03T02:26:05;4.10;;;3.10;;
7199;SDS011;3641;49.082;8.200;2022-09-03T02:28:33;6.47;;;3.45;;
7199;SDS011;3641;49.082;8.200;2022-09-03T02:31:00;7.53;;;3.22;;
7199;SDS011;3641;49.082;8.200;2022-09-03T02:33:28;5.57;;;3.13;;
7199;SDS011;3641;49.082;8.200;2022-09-03T02:35:55;7.10;;;2.90;;
7199;SDS011;3641;49.082;8.200;2022-09-03T02:38:23;4.20;;;2.80;;
7199;SDS011;3641;49.082;8.200;2022-09-03T02:40:51;6.70;;;3.00;;
7199;SDS011;3641;49.082;8.200;2022-09-03T02:43:18;4.97;;;3.42;;
7199;SDS011;3641;49.082;8.200;2022-09-03T02:45:53;6.90;;;3.05;;
7199;SDS011;3641;49.082;8.200;2022-09-03T02:48:22;6.32;;;3.08;;
7199;SDS011;3641;49.082;8.200;2022-09-03T02:50:51;6.65;;;2.80;;
7199;SDS011;3641;49.082;8.200;2022-09-03T02:53:17;8.15;;;3.13;;
7199;SDS011;3641;49.082;8.200;2022-09-03T02:55:44;4.72;;;2.70;;
7199;SDS011;3641;49.082;8.200;2022-09-03T02:58:11;4.80;;;3.10;;
7199;SDS011;3641;49.082;8.200;2022-09-03T03:00:38;6.97;;;3.20;;
7199;SDS011;3641;49.082;8.200;2022-09-03T03:03:05;8.82;;;3.22;;
7199;SDS011;3641;49.082;8.200;2022-09-03T03:05:35;7.25;;;3.08;;
7199;SDS011;3641;49.082;8.200;2022-09-03T03:08:10;7.05;;;3.10;;
7199;SDS011;3641;49.082;8.200;2022-09-03T03:10:39;7.22;;;2.97;;
7199;SDS011;3641;49.082;8.200;2022-09-03T03:13:06;5.47;;;2.80;;
7199;SDS011;3641;49.082;8.200;2022-09-03T03:15:32;5.60;;;3.15;;
7199;SDS011;3641;49.082;8.200;2022-09-03T03:17:59;5.60;;;2.88;;
7199;SDS011;3641;49.082;8.200;2022-09-03T03:20:25;6.28;;;2.80;;
7199;SDS011;3641;49.082;8.200;2022-09-03T03:22:52;6.50;;;3.00;;
7199;SDS011;3641;49.082;8.200;2022-09-03T03:25:20;11.48;;;3.38;;
7199;SDS011;3641;49.082;8.200;2022-09-03T03:27:46;5.75;;;3.30;;
7199;SDS011;3641;49.082;8.200;2022-09-03T03:30:13;8.05;;;2.97;;
7199;SDS011;3641;49.082;8.200;2022-09-03T03:32:39;5.50;;;3.13;;
7199;SDS011;3641;49.082;8.200;2022-09-03T03:35:06;4.57;;;2.72;;
7199;SDS011;3641;49.082;8.200;2022-09-03T03:37:33;6.22;;;3.20;;
7199;SDS011;3641;49.082;8.200;2022-09-03T03:40:00;7.38;;;3.33;;
7199;SDS011;3641;49.082;8.200;2022-09-03T03:42:28;7.07;;;2.95;;
7199;SDS011;3641;49.082;8.200;2022-09-03T03:44:54;5.82;;;2.97;;
7199;SDS011;3641;49.082;8.200;2022-09-03T03:47:21;5.47;;;2.95;;
7199;SDS011;3641;49.082;8.200;2022-09-03T03:49:48;5.82;;;3.17;;
7199;SDS011;3641;49.082;8.200;2022-09-03T03:52:14;4.50;;;2.90;;
7199;SDS011;3641;49.082;8.200;2022-09-03T03:54:41;6.03;;;3.50;;
7199;SDS011;3641;49.082;8.200;2022-09-03T03:57:07;6.90;;;3.13;;
7199;SDS011;3641;49.082;8.200;2022-09-03T03:59:35;7.30;;;3.38;;
7199;SDS011;3641;49.082;8.200;2022-09-03T04:02:02;4.50;;;2.95;;
7199;SDS011;3641;49.082;8.200;2022-09-03T04:04:28;6.28;;;3.40;;
7199;SDS011;3641;49.082;8.200;2022-09-03T04:06:55;5.25;;;3.25;;
7199;SDS011;3641;49.082;8.200;2022-09-03T04:09:21;7.68;;;3.35;;
7199;SDS011;3641;49.082;8.200;2022-09-03T04:11:48;6.72;;;3.25;;
7199;SDS011;3641;49.082;8.200;2022-09-03T04:14:15;7.45;;;3.65;;
7199;SDS011;3641;49.082;8.200;2022-09-03T04:16:43;6.93;;;3.53;;
7199;SDS011;3641;49.082;8.200;2022-09-03T04:19:10;6.20;;;3.50;;
7199;SDS011;3641;49.082;8.200;2022-09-03T04:21:37;6.45;;;3.72;;
7199;SDS011;3641;49.082;8.200;2022-09-03T04:24:04;6.75;;;3.50;;
7199;SDS011;3641;49.082;8.200;2022-09-03T04:26:31;9.02;;;3.20;;
7199;SDS011;3641;49.082;8.200;2022-09-03T04:28:59;4.40;;;3.00;;
7199;SDS011;3641;49.082;8.200;2022-09-03T04:31:28;7.15;;;3.45;;
7199;SDS011;3641;49.082;8.200;2022-09-03T04:33:56;6.00;;;3.60;;
7199;SDS011;3641;49.082;8.200;2022-09-03T04:36:23;6.32;;;3.38;;
7199;SDS011;3641;49.082;8.200;2022-09-03T04:38:53;7.63;;;3.75;;
7199;SDS011;3641;49.082;8.200;2022-09-03T04:41:21;5.50;;;3.63;;
7199;SDS011;3641;49.082;8.200;2022-09-03T04:43:50;7.88;;;3.95;;
7199;SDS011;3641;49.082;8.200;2022-09-03T04:46:17;6.85;;;4.32;;
7199;SDS011;3641;49.082;8.200;2022-09-03T04:48:46;6.20;;;3.83;;
7199;SDS011;3641;49.082;8.200;2022-09-03T04:51:17;5.93;;;3.58;;
7199;SDS011;3641;49.082;8.200;2022-09-03T04:53:45;5.78;;;3.83;;
7199;SDS011;3641;49.082;8.200;2022-09-03T04:56:13;12.35;;;3.78;;
7199;SDS011;3641;49.082;8.200;2022-09-03T04:58:41;5.70;;;3.95;;
7199;SDS011;3641;49.082;8.200;2022-09-03T05:01:08;10.30;;;3.95;;
7199;SDS011;3641;49.082;8.200;2022-09-03T05:03:36;5.88;;;4.18;;
7199;SDS011;3641;49.082;8.200;2022-09-03T05:06:02;7.63;;;4.00;;
7199;SDS011;3641;49.082;8.200;2022-09-03T05:08:31;7.57;;;4.00;;
7199;SDS011;3641;49.082;8.200;2022-09-03T05:11:01;6.18;;;4.15;;
7199;SDS011;3641;49.082;8.200;2022-09-03T05:13:28;7.47;;;4.20;;
7199;SDS011;3641;49.082;8.200;2022-09-03T05:15:57;9.02;;;4.30;;
7199;SDS011;3641;49.082;8.200;2022-09-03T05:18:25;9.80;;;4.80;;
7199;SDS011;3641;49.082;8.200;2022-09-03T05:20:56;8.13;;;4.80;;
7199;SDS011;3641;49.082;8.200;2022-09-03T05:23:24;7.97;;;4.45;;
7199;SDS011;3641;49.082;8.200;2022-09-03T05:25:55;9.15;;;4.40;;
7199;SDS011;3641;49.082;8.200;2022-09-03T05:28:22;5.60;;;3.90;;
7199;SDS011;3641;49.082;8.200;2022-09-03T05:30:56;9.38;;;4.13;;
7199;SDS011;3641;49.082;8.200;2022-09-03T05:33:23;6.38;;;4.28;;
7199;SDS011;3641;49.082;8.200;2022-09-03T05:35:50;6.20;;;4.00;;
7199;SDS011;3641;49.082;8.200;2022-09-03T05:38:17;5.47;;;3.38;;
7199;SDS011;3641;49.082;8.200;2022-09-03T05:40:44;15.10;;;4.85;;
7199;SDS011;3641;49.082;8.200;2022-09-03T05:43:12;6.80;;;3.88;;
7199;SDS011;3641;49.082;8.200;2022-09-03T05:45:38;8.93;;;4.40;;
7199;SDS011;3641;49.082;8.200;2022-09-03T05:48:06;8.13;;;4.57;;
7199;SDS011;3641;49.082;8.200;2022-09-03T05:50:32;8.52;;;4.57;;
7199;SDS011;3641;49.082;8.200;2022-09-03T05:52:59;9.30;;;4.95;;
7199;SDS011;3641;49.082;8.200;2022-09-03T05:55:25;13.10;;;5.15;;
7199;SDS011;3641;49.082;8.200;2022-09-03T05:57:53;10.55;;;5.32;;
7199;SDS011;3641;49.082;8.200;2022-09-03T06:00:21;7.60;;;5.13;;
7199;SDS011;3641;49.082;8.200;2022-09-03T06:02:49;9.65;;;5.13;;
7199;SDS011;3641;49.082;8.200;2022-09-03T06:05:16;17.92;;;5.40;;
7199;SDS011;3641;49.082;8.200;2022-09-03T06:07:42;11.15;;;4.93;;
7199;SDS011;3641;49.082;8.200;2022-09-03T06:10:09;9.85;;;4.68;;
7199;SDS011;3641;49.082;8.200;2022-09-03T06:12:36;9.68;;;5.38;;
7199;SDS011;3641;49.082;8.200;2022-09-03T06:15:03;9.10;;;5.07;;
7199;SDS011;3641;49.082;8.200;2022-09-03T06:17:32;9.43;;;5.22;;
7199;SDS011;3641;49.082;8.200;2022-09-03T06:19:58;7.82;;;4.90;;
7199;SDS011;3641;49.082;8.200;2022-09-03T06:22:25;8.45;;;5.63;;
7199;SDS011;3641;49.082;8.200;2022-09-03T06:24:54;9.80;;;5.72;;
7199;SDS011;3641;49.082;8.200;2022-09-03T06:27:20;9.52;;;5.60;;
7199;SDS011;3641;49.082;8.200;2022-09-03T06:29:47;8.70;;;5.03;;
7199;SDS011;3641;49.082;8.200;2022-09-03T06:32:13;8.88;;;5.13;;
7199;SDS011;3641;49.082;8.200;2022-09-03T06:34:42;9.55;;;5.72;;
7199;SDS011;3641;49.082;8.200;2022-09-03T06:37:08;9.63;;;6.03;;
7199;SDS011;3641;49.082;8.200;2022-09-03T06:39:35;9.55;;;6.28;;
7199;SDS011;3641;49.082;8.200;2022-09-03T06:42:01;11.73;;;6.03;;
7199;SDS011;3641;49.082;8.200;2022-09-03T06:44:28;9.95;;;6.25;;
7199;SDS011;3641;49.082;8.200;2022-09-03T06:46:55;12.32;;;6.93;;
7199;SDS011;3641;49.082;8.200;2022-09-03T06:49:25;10.30;;;6.07;;
7199;SDS011;3641;49.082;8.200;2022-09-03T06:51:53;15.15;;;7.13;;
7199;SDS011;3641;49.082;8.200;2022-09-03T06:54:19;11.80;;;7.10;;
7199;SDS011;3641;49.082;8.200;2022-09-03T06:56:49;11.27;;;6.32;;
7199;SDS011;3641;49.082;8.200;2022-09-03T06:59:15;11.88;;;7.15;;
7199;SDS011;3641;49.082;8.200;2022-09-03T07:01:42;10.00;;;6.68;;
7199;SDS011;3641;49.082;8.200;2022-09-03T07:04:09;10.70;;;6.75;;
7199;SDS011;3641;49.082;8.200;2022-09-03T07:06:37;10.55;;;6.15;;
7199;SDS011;3641;49.082;8.200;2022-09-03T07:09:06;8.32;;;5.75;;
7199;SDS011;3641;49.082;8.200;2022-09-03T07:11:33;9.07;;;6.15;;
7199;SDS011;3641;49.082;8.200;2022-09-03T07:14:01;11.77;;;6.18;;
7199;SDS011;3641;49.082;8.200;2022-09-03T07:16:31;9.45;;;6.53;;
7199;SDS011;3641;49.082;8.200;2022-09-03T07:18:59;10.00;;;6.65;;
7199;SDS011;3641;49.082;8.200;2022-09-03T07:21:28;10.35;;;7.20;;
7199;SDS011;3641;49.082;8.200;2022-09-03T07:23:55;10.60;;;6.70;;
7199;SDS011;3641;49.082;8.200;2022-09-03T07:26:25;11.93;;;7.05;;
7199;SDS011;3641;49.082;8.200;2022-09-03T07:28:53;12.35;;;7.55;;
7199;SDS011;3641;49.082;8.200;2022-09-03T07:31:21;12.05;;;7.53;;
7199;SDS011;3641;49.082;8.200;2022-09-03T07:33:50;9.88;;;7.82;;
7199;SDS011;3641;49.082;8.200;2022-09-03T07:36:19;13.43;;;8.32;;
7199;SDS011;3641;49.082;8.200;2022-09-03T07:38:46;12.95;;;8.63;;
7199;SDS011;3641;49.082;8.200;2022-09-03T07:41:13;12.63;;;8.52;;
7199;SDS011;3641;49.082;8.200;2022-09-03T07:43:42;11.85;;;7.90;;
7199;SDS011;3641;49.082;8.200;2022-09-03T07:46:11;12.55;;;7.95;;
7199;SDS011;3641;49.082;8.200;2022-09-03T07:48:38;10.43;;;8.23;;
7199;SDS011;3641;49.082;8.200;2022-09-03T07:51:05;12.30;;;8.07;;
7199;SDS011;3641;49.082;8.200;2022-09-03T07:53:32;11.73;;;8.20;;
7199;SDS011;3641;49.082;8.200;2022-09-03T07:56:01;11.00;;;8.05;;
7199;SDS011;3641;49.082;8.200;2022-09-03T07:58:29;10.43;;;8.05;;
7199;SDS011;3641;49.082;8.200;2022-09-03T08:00:57;10.73;;;7.90;;
7199;SDS011;3641;49.082;8.200;2022-09-03T08:03:24;13.88;;;7.43;;
7199;SDS011;3641;49.082;8.200;2022-09-03T08:05:50;11.90;;;7.80;;
7199;SDS011;3641;49.082;8.200;2022-09-03T08:08:18;12.70;;;7.85;;
7199;SDS011;3641;49.082;8.200;2022-09-03T08:10:44;11.45;;;8.48;;
7199;SDS011;3641;49.082;8.200;2022-09-03T08:13:11;12.80;;;8.85;;
7199;SDS011;3641;49.082;8.200;2022-09-03T08:15:38;12.30;;;9.07;;
7199;SDS011;3641;49.082;8.200;2022-09-03T08:18:08;12.50;;;8.98;;
7199;SDS011;3641;49.082;8.200;2022-09-03T08:20:35;10.77;;;8.30;;
7199;SDS011;3641;49.082;8.200;2022-09-03T08:23:02;12.20;;;8.93;;
7199;SDS011;3641;49.082;8.200;2022-09-03T08:25:29;13.35;;;9.32;;
7199;SDS011;3641;49.082;8.200;2022-09-03T08:27:56;13.93;;;9.25;;
7199;SDS011;3641;49.082;8.200;2022-09-03T08:30:23;13.20;;;9.27;;
7199;SDS011;3641;49.082;8.200;2022-09-03T08:32:51;11.65;;;8.48;;
7199;SDS011;3641;49.082;8.200;2022-09-03T08:35:19;14.90;;;9.82;;
7199;SDS011;3641;49.082;8.200;2022-09-03T08:37:46;12.20;;;9.00;;
7199;SDS011;3641;49.082;8.200;2022-09-03T08:40:13;13.35;;;9.35;;
7199;SDS011;3641;49.082;8.200;2022-09-03T08:42:42;11.20;;;9.05;;
7199;SDS011;3641;49.082;8.200;2022-09-03T08:45:16;14.52;;;9.00;;
7199;SDS011;3641;49.082;8.200;2022-09-03T08:47:46;11.00;;;8.90;;
7199;SDS011;3641;49.082;8.200;2022-09-03T08:50:21;12.38;;;8.48;;
7199;SDS011;3641;49.082;8.200;2022-09-03T08:52:51;11.30;;;8.20;;
7199;SDS011;3641;49.082;8.200;2022-09-03T08:55:25;14.32;;;8.65;;
7199;SDS011;3641;49.082;8.200;2022-09-03T08:57:55;11.77;;;9.60;;
7199;SDS011;3641;49.082;8.200;2022-09-03T09:00:27;12.00;;;9.48;;
7199;SDS011;3641;49.082;8.200;2022-09-03T09:03:06;11.00;;;8.93;;
7199;SDS011;3641;49.082;8.200;2022-09-03T09:06:02;13.18;;;9.00;;
7199;SDS011;3641;49.082;8.200;2022-09-03T09:08:38;11.73;;;8.93;;
7199;SDS011;3641;49.082;8.200;2022-09-03T09:11:12;11.23;;;9.57;;
7199;SDS011;3641;49.082;8.200;2022-09-03T09:13:48;10.75;;;9.18;;
7199;SDS011;3641;49.082;8.200;2022-09-03T09:16:23;14.95;;;9.52;;
7199;SDS011;3641;49.082;8.200;2022-09-03T09:18:59;12.88;;;8.90;;
7199;SDS011;3641;49.082;8.200;2022-09-03T09:21:39;15.13;;;9.25;;
7199;SDS011;3641;49.082;8.200;2022-09-03T09:24:11;12.85;;;9.10;;
7199;SDS011;3641;49.082;8.200;2022-09-03T09:26:47;13.10;;;10.07;;
7199;SDS011;3641;49.082;8.200;2022-09-03T09:29:14;13.38;;;10.30;;
7199;SDS011;3641;49.082;8.200;2022-09-03T09:31:41;11.57;;;10.25;;
7199;SDS011;3641;49.082;8.200;2022-09-03T09:34:08;13.00;;;9.70;;
7199;SDS011;3641;49.082;8.200;2022-09-03T09:36:36;14.02;;;8.68;;
7199;SDS011;3641;49.082;8.200;2022-09-03T09:39:16;12.02;;;8.80;;
7199;SDS011;3641;49.082;8.200;2022-09-03T09:41:55;13.25;;;10.00;;
7199;SDS011;3641;49.082;8.200;2022-09-03T09:44:24;12.73;;;9.98;;
7199;SDS011;3641;49.082;8.200;2022-09-03T09:47:00;14.82;;;9.68;;
7199;SDS011;3641;49.082;8.200;2022-09-03T09:49:31;12.98;;;9.13;;
7199;SDS011;3641;49.082;8.200;2022-09-03T09:52:01;11.98;;;9.38;;
7199;SDS011;3641;49.082;8.200;2022-09-03T09:54:30;11.27;;;9.77;;
7199;SDS011;3641;49.082;8.200;2022-09-03T09:57:00;12.15;;;10.00;;
7199;SDS011;3641;49.082;8.200;2022-09-03T09:59:29;14.55;;;10.18;;
7199;SDS011;3641;49.082;8.200;2022-09-03T10:02:06;13.13;;;9.80;;
7199;SDS011;3641;49.082;8.200;2022-09-03T10:04:36;13.00;;;10.80;;
7199;SDS011;3641;49.082;8.200;2022-09-03T10:07:06;12.43;;;9.85;;
7199;SDS011;3641;49.082;8.200;2022-09-03T10:09:56;11.93;;;10.10;;
7199;SDS011;3641;49.082;8.200;2022-09-03T10:12:25;11.65;;;9.43;;
7199;SDS011;3641;49.082;8.200;2022-09-03T10:14:56;11.65;;;9.40;;
7199;SDS011;3641;49.082;8.200;2022-09-03T10:17:29;11.48;;;9.55;;
7199;SDS011;3641;49.082;8.200;2022-09-03T10:20:04;11.93;;;9.80;;
7199;SDS011;3641;49.082;8.200;2022-09-03T10:22:55;13.10;;;9.98;;
7199;SDS011;3641;49.082;8.200;2022-09-03T10:25:28;11.63;;;9.77;;
7199;SDS011;3641;49.082;8.200;2022-09-03T10:28:04;13.57;;;10.82;;
7199;SDS011;3641;49.082;8.200;2022-09-03T10:30:35;12.60;;;10.43;;
7199;SDS011;3641;49.082;8.200;2022-09-03T10:33:15;12.73;;;10.13;;
7199;SDS011;3641;49.082;8.200;2022-09-03T10:35:50;11.98;;;9.35;;
7199;SDS011;3641;49.082;8.200;2022-09-03T10:38:22;14.13;;;10.40;;
7199;SDS011;3641;49.082;8.200;2022-09-03T10:40:56;11.02;;;9.68;;
7199;SDS011;3641;49.082;8.200;2022-09-03T10:43:40;11.65;;;10.20;;
7199;SDS011;3641;49.082;8.200;2022-09-03T10:46:33;12.25;;;10.10;;
7199;SDS011;3641;49.082;8.200;2022-09-03T10:49:14;13.60;;;9.50;;
7199;SDS011;3641;49.082;8.200;2022-09-03T10:51:53;12.23;;;8.30;;
7199;SDS011;3641;49.082;8.200;2022-09-03T10:57:23;11.65;;;9.23;;
7199;SDS011;3641;49.082;8.200;2022-09-03T11:00:01;11.57;;;8.98;;
7199;SDS011;3641;49.082;8.200;2022-09-03T11:02:38;12.27;;;10.07;;
7199;SDS011;3641;49.082;8.200;2022-09-03T11:05:27;11.93;;;9.30;;
7199;SDS011;3641;49.082;8.200;2022-09-03T11:07:57;11.27;;;9.93;;
7199;SDS011;3641;49.082;8.200;2022-09-03T11:10:32;12.05;;;10.50;;
7199;SDS011;3641;49.082;8.200;2022-09-03T11:13:02;12.60;;;9.45;;
7199;SDS011;3641;49.082;8.200;2022-09-03T11:15:33;14.60;;;10.57;;
7199;SDS011;3641;49.082;8.200;2022-09-03T11:18:13;11.60;;;9.88;;
7199;SDS011;3641;49.082;8.200;2022-09-03T11:20:44;12.85;;;9.93;;
7199;SDS011;3641;49.082;8.200;2022-09-03T11:23:13;12.93;;;9.07;;
7199;SDS011;3641;49.082;8.200;2022-09-03T11:25:45;11.85;;;9.70;;
7199;SDS011;3641;49.082;8.200;2022-09-03T11:28:17;11.60;;;8.35;;
7199;SDS011;3641;49.082;8.200;2022-09-03T11:30:57;9.80;;;7.97;;
7199;SDS011;3641;49.082;8.200;2022-09-03T11:33:38;9.85;;;7.63;;
7199;SDS011;3641;49.082;8.200;2022-09-03T11:36:07;9.82;;;8.43;;
7199;SDS011;3641;49.082;8.200;2022-09-03T11:38:33;10.02;;;8.70;;
7199;SDS011;3641;49.082;8.200;2022-09-03T11:41:11;10.65;;;8.98;;
7199;SDS011;3641;49.082;8.200;2022-09-03T11:43:40;9.30;;;7.72;;
7199;SDS011;3641;49.082;8.200;2022-09-03T11:46:08;12.65;;;9.82;;
7199;SDS011;3641;49.082;8.200;2022-09-03T11:48:39;11.07;;;9.02;;
7199;SDS011;3641;49.082;8.200;2022-09-03T11:51:18;12.93;;;9.13;;
7199;SDS011;3641;49.082;8.200;2022-09-03T11:53:54;10.77;;;8.25;;
7199;SDS011;3641;49.082;8.200;2022-09-03T11:56:23;12.13;;;8.88;;
7199;SDS011;3641;49.082;8.200;2022-09-03T11:58:58;9.20;;;7.03;;
7199;SDS011;3641;49.082;8.200;2022-09-03T12:01:27;10.15;;;8.02;;
7199;SDS011;3641;49.082;8.200;2022-09-03T12:03:56;8.73;;;7.07;;
7199;SDS011;3641;49.082;8.200;2022-09-03T12:09:27;9.82;;;7.00;;
7199;SDS011;3641;49.082;8.200;2022-09-03T12:12:13;8.27;;;7.32;;
7199;SDS011;3641;49.082;8.200;2022-09-03T12:14:54;9.45;;;6.60;;
7199;SDS011;3641;49.082;8.200;2022-09-03T12:17:29;12.25;;;7.95;;
7199;SDS011;3641;49.082;8.200;2022-09-03T12:20:00;13.25;;;8.38;;
7199;SDS011;3641;49.082;8.200;2022-09-03T12:22:28;8.93;;;7.22;;
7199;SDS011;3641;49.082;8.200;2022-09-03T12:25:06;10.05;;;8.18;;
7199;SDS011;3641;49.082;8.200;2022-09-03T12:27:36;10.23;;;8.57;;
7199;SDS011;3641;49.082;8.200;2022-09-03T12:30:03;11.48;;;7.50;;
7199;SDS011;3641;49.082;8.200;2022-09-03T12:32:39;11.80;;;7.80;;
7199;SDS011;3641;49.082;8.200;2022-09-03T12:35:09;10.40;;;7.82;;
7199;SDS011;3641;49.082;8.200;2022-09-03T12:37:37;11.05;;;9.27;;
7199;SDS011;3641;49.082;8.200;2022-09-03T12:40:05;9.30;;;7.35;;
7199;SDS011;3641;49.082;8.200;2022-09-03T12:42:43;12.57;;;9.23;;
7199;SDS011;3641;49.082;8.200;2022-09-03T12:45:10;10.60;;;9.38;;
7199;SDS011;3641;49.082;8.200;2022-09-03T12:47:40;9.48;;;7.80;;
7199;SDS011;3641;49.082;8.200;2022-09-03T12:50:08;12.20;;;7.80;;
7199;SDS011;3641;49.082;8.200;2022-09-03T12:52:37;11.18;;;8.40;;
7199;SDS011;3641;49.082;8.200;2022-09-03T12:55:07;9.07;;;7.68;;
7199;SDS011;3641;49.082;8.200;2022-09-03T12:57:48;10.90;;;8.57;;
7199;SDS011;3641;49.082;8.200;2022-09-03T13:00:20;11.60;;;9.50;;
7199;SDS011;3641;49.082;8.200;2022-09-03T13:02:48;15.98;;;11.73;;
7199;SDS011;3641;49.082;8.200;2022-09-03T13:05:19;12.45;;;10.10;;
7199;SDS011;3641;49.082;8.200;2022-09-03T13:07:50;13.88;;;10.98;;
7199;SDS011;3641;49.082;8.200;2022-09-03T13:10:23;12.75;;;10.88;;
7199;SDS011;3641;49.082;8.200;2022-09-03T13:12:56;13.93;;;10.77;;
7199;SDS011;3641;49.082;8.200;2022-09-03T13:15:24;12.10;;;10.10;;
7199;SDS011;3641;49.082;8.200;2022-09-03T13:18:04;12.18;;;9.32;;
7199;SDS011;3641;49.082;8.200;2022-09-03T13:20:44;12.90;;;10.25;;
7199;SDS011;3641;49.082;8.200;2022-09-03T13:26:18;17.23;;;11.93;;
7199;SDS011;3641;49.082;8.200;2022-09-03T13:28:58;16.67;;;11.38;;
7199;SDS011;3641;49.082;8.200;2022-09-03T13:31:41;16.63;;;12.18;;
7199;SDS011;3641;49.082;8.200;2022-09-03T13:34:14;13.30;;;11.07;;
7199;SDS011;3641;49.082;8.200;2022-09-03T13:36:47;14.00;;;11.18;;
7199;SDS011;3641;49.082;8.200;2022-09-03T13:39:19;16.90;;;11.90;;
7199;SDS011;3641;49.082;8.200;2022-09-03T13:41:52;14.90;;;11.93;;
7199;SDS011;3641;49.082;8.200;2022-09-03T13:44:28;18.15;;;13.38;;
7199;SDS011;3641;49.082;8.200;2022-09-03T13:47:06;18.40;;;13.77;;
7199;SDS011;3641;49.082;8.200;2022-09-03T13:49:35;20.95;;;17.85;;
7199;SDS011;3641;49.082;8.200;2022-09-03T13:52:24;23.38;;;17.38;;
7199;SDS011;3641;49.082;8.200;2022-09-03T13:54:57;24.67;;;17.58;;
7199;SDS011;3641;49.082;8.200;2022-09-03T13:57:31;21.00;;;15.18;;
7199;SDS011;3641;49.082;8.200;2022-09-03T14:00:06;17.98;;;14.98;;
7199;SDS011;3641;49.082;8.200;2022-09-03T14:02:41;21.20;;;15.70;;
7199;SDS011;3641;49.082;8.200;2022-09-03T14:05:16;25.58;;;18.33;;
7199;SDS011;3641;49.082;8.200;2022-09-03T14:07:55;22.27;;;18.02;;
7199;SDS011;3641;49.082;8.200;2022-09-03T14:10:33;22.83;;;18.35;;
7199;SDS011;3641;49.082;8.200;2022-09-03T14:13:15;20.77;;;15.38;;
7199;SDS011;3641;49.082;8.200;2022-09-03T14:15:54;19.85;;;14.30;;
7199;SDS011;3641;49.082;8.200;2022-09-03T14:18:31;16.38;;;13.05;;
7199;SDS011;3641;49.082;8.200;2022-09-03T14:21:07;21.40;;;13.25;;
7199;SDS011;3641;49.082;8.200;2022-09-03T14:23:39;20.13;;;13.70;;
7199;SDS011;3641;49.082;8.200;2022-09-03T14:26:14;20.08;;;13.68;;
7199;SDS011;3641;49.082;8.200;2022-09-03T14:28:43;15.40;;;13.27;;
7199;SDS011;3641;49.082;8.200;2022-09-03T14:31:16;18.17;;;12.13;;
7199;SDS011;3641;49.082;8.200;2022-09-03T14:33:53;13.15;;;10.35;;
7199;SDS011;3641;49.082;8.200;2022-09-03T14:36:30;19.48;;;10.52;;
7199;SDS011;3641;49.082;8.200;2022-09-03T14:39:15;13.38;;;10.55;;
7199;SDS011;3641;49.082;8.200;2022-09-03T14:41:58;11.23;;;9.18;;
7199;SDS011;3641;49.082;8.200;2022-09-03T14:44:47;11.00;;;7.95;;
7199;SDS011;3641;49.082;8.200;2022-09-03T14:47:32;7.00;;;4.72;;
7199;SDS011;3641;49.082;8.200;2022-09-03T14:50:10;6.82;;;3.10;;
7199;SDS011;3641;49.082;8.200;2022-09-03T14:52:52;4.03;;;2.70;;
7199;SDS011;3641;49.082;8.200;2022-09-03T14:55:41;2.67;;;1.83;;
7199;SDS011;3641;49.082;8.200;2022-09-03T14:58:24;3.03;;;1.83;;
7199;SDS011;3641;49.082;8.200;2022-09-03T15:01:01;6.88;;;2.15;;
7199;SDS011;3641;49.082;8.200;2022-09-03T15:03:43;4.20;;;1.70;;
7199;SDS011;3641;49.082;8.200;2022-09-03T15:06:46;3.25;;;1.55;;
7199;SDS011;3641;49.082;8.200;2022-09-03T15:09:30;2.47;;;1.65;;
7199;SDS011;3641;49.082;8.200;2022-09-03T15:12:02;3.83;;;1.80;;
7199;SDS011;3641;49.082;8.200;2022-09-03T15:14:37;3.28;;;1.65;;
7199;SDS011;3641;49.082;8.200;2022-09-03T15:17:16;2.72;;;1.48;;
7199;SDS011;3641;49.082;8.200;2022-09-03T15:19:56;3.90;;;1.60;;
7199;SDS011;3641;49.082;8.200;2022-09-03T15:22:33;4.00;;;2.08;;
7199;SDS011;3641;49.082;8.200;2022-09-03T15:25:13;3.92;;;1.50;;
7199;SDS011;3641;49.082;8.200;2022-09-03T15:27:55;4.82;;;1.70;;
7199;SDS011;3641;49.082;8.200;2022-09-03T15:30:34;3.67;;;1.70;;
7199;SDS011;3641;49.082;8.200;2022-09-03T15:33:10;4.18;;;1.52;;
7199;SDS011;3641;49.082;8.200;2022-09-03T15:36:02;3.28;;;1.40;;
7199;SDS011;3641;49.082;8.200;2022-09-03T15:38:38;3.35;;;1.63;;
7199;SDS011;3641;49.082;8.200;2022-09-03T15:41:09;2.85;;;1.63;;
7199;SDS011;3641;49.082;8.200;2022-09-03T15:43:47;4.63;;;1.25;;
7199;SDS011;3641;49.082;8.200;2022-09-03T15:46:28;3.63;;;1.38;;
7199;SDS011;3641;49.082;8.200;2022-09-03T15:49:01;2.95;;;1.60;;